| Record Date MM/DD/YYYY | Record Time HH:MM:SS | Record Julian Date NNN day of the year | Air Temperature Max (Degrees Fahrenheit F) | Time Max Air Temperature HH:MM:SS This is the time of max air temp for the prior hour interval listed for record [Time]. | Air Temperature Min (Degrees Fahrenheit F) | Time Min Air Temperature HH:MM:SS This is the time of min air temp for the prior hour interval listed for record [Time]. | Air Temperature Observed (Degrees Fahrenheit F) This is an instantaneous reading at the record [Time]. | Relative Humidity Max (Percent) | Time Max Relative Humidity HH:MM:SS This is the time of max relative humidity for the prior hour interval listed for record [Time]. | Relative Humidity Min (Percent) | Time Min Relative Humidity HH:MM:SS This is the time of min relative humidity for the prior hour interval listed for record [Time]. | Relative Humidity Observed (Percent) This is an instantaneous reading at the record [Time]. | Precipitation (Inches n.nn) rain fall that occurred during the prior hour interval listed for record [Time]. | Wind Speed (Miles Per Hour) Resultant Speed that occurred during the prior hour interval listed for record [Time]. | Wind Direction (Degrees) Resultant Direction that occurred during the prior hour interval listed for record [Time]. | Solar Radiation (Langley's) that occurred during the prior hour interval listed for record [Time]. | Soil Temperature Average at 2 inch depth (Degrees Fahrenheit F) that occurred during the prior hour interval listed for record [Time]. | Soil Temperature Observed at 2 inch depth (Degrees Fahrenheit F) This is an instantaneous reading at the record [Time]. | Soil Temperature Average at 4 inch depth (Degrees Fahrenheit F) that occurred during the prior hour interval listed for record [Time]. | Soil Temperature Observed at 4 inch depth (Degrees Fahrenheit F) This is an instantaneous reading at the record [Time]. |
|---|---|---|---|---|---|---|---|---|---|---|---|---|---|---|---|---|---|---|---|---|
| 04/29/2026 | 0:00:00 | 119 | 71 | 23:57:00 | 69 | 23:27:02 | 70 | 95 | 23:44:01 | 93 | 23:00:02 | 93.6 | 0 | 4.4 | 195 | 0 | 71 | 71 | 73 | 73 |
| 04/29/2026 | 1:00:00 | 119 | 70 | 0:34:04 | 70 | 0:59:04 | 70 | 96 | 1:00:00 | 94 | 0:00:01 | 95.7 | 0 | 3.2 | 310 | 0 | 71 | 71 | 72 | 72 |
| 04/29/2026 | 2:00:00 | 119 | 70 | 1:00:00 | 69 | 1:59:05 | 69 | 98 | 1:59:05 | 96 | 1:00:00 | 98.2 | 0 | 1.5 | 344 | 0 | 71 | 70 | 72 | 72 |
| 04/29/2026 | 3:00:00 | 119 | 69 | 2:00:01 | 68 | 2:53:05 | 68 | 99 | 2:59:05 | 98 | 2:00:01 | 99.1 | 0 | 0.5 | 284 | 0 | 70 | 70 | 72 | 72 |
| 04/29/2026 | 4:00:00 | 119 | 70 | 3:53:01 | 68 | 3:00:04 | 69 | 100 | 3:47:02 | 99 | 3:01:00 | 99.4 | 0 | 1.8 | 167 | 0 | 70 | 70 | 72 | 72 |
| 04/29/2026 | 5:00:00 | 119 | 70 | 4:49:05 | 69 | 4:19:01 | 70 | 100 | 4:33:02 | 99 | 4:18:03 | 99.5 | 0 | 2.4 | 168 | 0 | 71 | 71 | 72 | 71 |
| 04/29/2026 | 6:00:00 | 119 | 70 | 5:58:03 | 69 | 5:28:02 | 70 | 100 | 5:57:03 | 99 | 5:06:05 | 99.8 | 0 | 1.1 | 268 | 1 | 71 | 71 | 71 | 71 |
| 04/29/2026 | 7:00:00 | 119 | 71 | 6:59:02 | 70 | 6:00:02 | 71 | 100 | 6:28:02 | 98 | 7:00:00 | 97.5 | 0 | 3.2 | 330 | 6 | 71 | 72 | 71 | 72 |
| 04/29/2026 | 8:00:00 | 119 | 71 | 7:20:00 | 70 | 7:59:04 | 70 | 98 | 7:01:02 | 93 | 7:32:02 | 94.3 | 0 | 7.6 | 358 | 5 | 72 | 72 | 72 | 72 |
| 04/29/2026 | 9:00:00 | 119 | 70 | 8:00:00 | 69 | 8:40:03 | 69 | 94 | 8:00:00 | 93 | 8:52:01 | 92.8 | 0 | 9.5 | 355 | 8 | 71 | 71 | 72 | 72 |
| 04/29/2026 | 10:00:00 | 119 | 70 | 9:43:05 | 69 | 9:00:05 | 70 | 93 | 9:01:02 | 88 | 9:57:02 | 88.3 | 0 | 11.5 | 6 | 27 | 72 | 74 | 72 | 72 |
| 04/29/2026 | 11:00:00 | 119 | 71 | 11:00:00 | 69 | 10:41:03 | 71 | 90 | 10:02:00 | 85 | 10:57:01 | 87.1 | 0 | 11.7 | 8 | 35 | 74 | 74 | 72 | 73 |
| 04/29/2026 | 12:00:00 | 119 | 71 | 11:14:04 | 70 | 11:28:01 | 70 | 87 | 11:22:01 | 83 | 11:47:04 | 83.9 | 0 | 11.0 | 18 | 33 | 75 | 75 | 73 | 73 |
| 04/29/2026 | 13:00:00 | 119 | 71 | 12:31:02 | 70 | 12:52:04 | 70 | 86 | 12:23:03 | 83 | 12:36:02 | 83.4 | 0 | 10.4 | 11 | 20 | 74 | 74 | 73 | 73 |
| 04/29/2026 | 14:00:00 | 119 | 71 | 13:10:03 | 69 | 13:56:02 | 69 | 86 | 13:45:05 | 81 | 13:30:01 | 84.5 | 0 | 8.1 | 13 | 16 | 74 | 73 | 73 | 73 |
| 04/29/2026 | 15:00:00 | 119 | 70 | 14:00:05 | 68 | 14:56:00 | 68 | 90 | 14:56:04 | 84 | 14:06:03 | 89.3 | 0 | 9.5 | 26 | 9 | 72 | 72 | 73 | 73 |
| 04/29/2026 | 16:00:00 | 119 | 70 | 15:43:04 | 68 | 15:00:04 | 69 | 90 | 15:03:03 | 86 | 15:55:00 | 86.4 | 0 | 11.3 | 16 | 27 | 73 | 73 | 73 | 73 |
| 04/29/2026 | 17:00:00 | 119 | 69 | 16:03:02 | 67 | 16:58:04 | 67 | 89 | 16:49:05 | 86 | 16:00:02 | 87.4 | 0 | 9.8 | 15 | 10 | 72 | 72 | 73 | 72 |
| 04/29/2026 | 18:00:00 | 119 | 68 | 17:01:05 | 66 | 17:57:03 | 66 | 90 | 17:36:04 | 87 | 17:01:02 | 89.2 | 0 | 11.2 | 13 | 4 | 71 | 70 | 72 | 72 |
| 04/29/2026 | 19:00:00 | 119 | 66 | 18:00:02 | 65 | 18:57:03 | 65 | 91 | 18:59:02 | 89 | 18:26:00 | 91 | 0 | 7.4 | 351 | 0 | 69 | 69 | 71 | 71 |
| 04/29/2026 | 20:00:00 | 119 | 65 | 19:00:02 | 64 | 19:45:05 | 64 | 94 | 19:34:04 | 91 | 19:00:00 | 91.9 | 0 | 5.8 | 7 | 0 | 68 | 68 | 71 | 70 |
| 04/29/2026 | 21:00:00 | 119 | 64 | 20:00:02 | 64 | 20:20:01 | 64 | 92 | 20:00:04 | 86 | 20:58:04 | 85.9 | 0 | 9.5 | 24 | 0 | 67 | 67 | 70 | 70 |
| 04/29/2026 | 22:00:00 | 119 | 64 | 21:07:02 | 64 | 21:24:00 | 64 | 86 | 21:23:03 | 84 | 21:53:02 | 85 | 0 | 9.5 | 31 | 0 | 67 | 66 | 69 | 69 |
| 04/29/2026 | 23:00:00 | 119 | 64 | 22:37:00 | 64 | 22:00:00 | 64 | 87 | 22:57:00 | 84 | 22:36:04 | 87.1 | 0 | 5.6 | 14 | 0 | 66 | 66 | 69 | 69 |
| 04/30/2026 | 0:00:00 | 120 | 64 | 23:01:02 | 63 | 0:00:00 | 63 | 89 | 23:42:05 | 86 | 23:19:03 | 87.5 | 0 | 7.1 | 18 | 0 | 66 | 66 | 69 | 68 |
| 04/30/2026 | 1:00:00 | 120 | 63 | 0:00:02 | 62 | 0:28:02 | 62 | 94 | 0:35:01 | 88 | 0:00:00 | 92.2 | 0.02 | 6.2 | 19 | 0 | 66 | 66 | 68 | 68 |
| 04/30/2026 | 2:00:00 | 120 | 63 | 1:00:04 | 62 | 1:32:01 | 62 | 94 | 1:30:04 | 92 | 1:01:04 | 92.4 | 0 | 5.3 | 35 | 0 | 65 | 65 | 68 | 68 |
| 04/30/2026 | 3:00:00 | 120 | 62 | 2:00:04 | 62 | 2:32:02 | 62 | 93 | 2:31:03 | 89 | 3:00:00 | 89.1 | 0 | 6.4 | 26 | 0 | 65 | 65 | 68 | 67 |
| 04/30/2026 | 4:00:00 | 120 | 62 | 3:03:04 | 62 | 3:56:04 | 62 | 90 | 3:15:01 | 82 | 4:00:00 | 82.2 | 0 | 9.2 | 24 | 0 | 65 | 64 | 67 | 67 |
| 04/30/2026 | 5:00:00 | 120 | 62 | 4:01:00 | 61 | 4:55:05 | 61 | 83 | 4:27:01 | 80 | 4:18:05 | 81.1 | 0 | 10.2 | 28 | 0 | 64 | 63 | 67 | 67 |
| 04/30/2026 | 6:00:00 | 120 | 61 | 5:01:01 | 59 | 5:58:00 | 59 | 83 | 5:57:03 | 80 | 5:39:00 | 82.4 | 0 | 11.3 | 31 | 1 | 63 | 63 | 66 | 66 |
| 04/30/2026 | 7:00:00 | 120 | 60 | 6:59:05 | 59 | 6:13:03 | 60 | 83 | 6:14:02 | 77 | 6:58:02 | 78.41 | 0 | 12.1 | 34 | 15 | 63 | 63 | 66 | 66 |
| 04/30/2026 | 8:00:00 | 120 | 61 | 7:59:03 | 60 | 7:39:00 | 61 | 80 | 7:01:03 | 76 | 7:49:01 | 76.5 | 0 | 13.6 | 44 | 27 | 64 | 64 | 66 | 66 |
| 04/30/2026 | 9:00:00 | 120 | 63 | 8:24:05 | 61 | 8:04:05 | 62 | 78 | 8:12:00 | 73 | 8:59:00 | 75.41 | 0 | 13.7 | 48 | 39 | 66 | 66 | 66 | 66 |
| 04/30/2026 | 10:00:00 | 120 | 64 | 9:36:03 | 62 | 9:07:02 | 63 | 77 | 9:02:01 | 70 | 9:51:04 | 72.36 | 0 | 12.3 | 49 | 48 | 68 | 69 | 67 | 67 |
| 04/30/2026 | 11:00:00 | 120 | 66 | 11:00:00 | 63 | 10:02:02 | 66 | 74 | 10:07:00 | 66 | 10:57:03 | 70.85 | 0 | 11.8 | 56 | 57 | 71 | 73 | 68 | 69 |
| 04/30/2026 | 12:00:00 | 120 | 68 | 11:58:02 | 66 | 11:00:03 | 67 | 71 | 11:02:03 | 63 | 11:55:04 | 64.36 | 0 | 11.3 | 45 | 60 | 75 | 76 | 70 | 71 |
| 04/30/2026 | 13:00:00 | 120 | 68 | 12:40:00 | 67 | 12:20:01 | 67 | 68 | 12:01:03 | 57 | 12:54:04 | 60.36 | 0 | 11.6 | 41 | 53 | 77 | 77 | 72 | 72 |
| 04/30/2026 | 14:00:00 | 120 | 68 | 13:02:05 | 66 | 13:44:00 | 66 | 69 | 13:47:01 | 60 | 13:00:01 | 68.2 | 0 | 11.1 | 30 | 31 | 76 | 75 | 73 | 73 |
| 04/30/2026 | 15:00:00 | 120 | 66 | 14:00:04 | 66 | 14:53:03 | 66 | 68 | 14:00:01 | 62 | 14:12:00 | 64.88 | 0 | 10.7 | 28 | 25 | 75 | 74 | 73 | 73 |
| 04/30/2026 | 16:00:00 | 120 | 66 | 15:10:02 | 65 | 15:58:00 | 65 | 67 | 15:00:05 | 62 | 15:13:05 | 63.56 | 0 | 9.1 | 33 | 16 | 73 | 72 | 73 | 72 |
| 04/30/2026 | 17:00:00 | 120 | 65 | 16:00:01 | 64 | 16:47:00 | 65 | 68 | 16:46:00 | 63 | 16:32:00 | 66.32 | 0 | 7.2 | 25 | 7 | 71 | 70 | 72 | 71 |
| 04/30/2026 | 18:00:00 | 120 | 65 | 17:06:05 | 64 | 18:00:00 | 64 | 69 | 17:59:05 | 63 | 17:17:00 | 69.32 | 0 | 6.3 | 32 | 4 | 70 | 69 | 71 | 71 |
| 04/30/2026 | 19:00:00 | 120 | 64 | 18:00:00 | 63 | 18:58:05 | 63 | 73 | 18:20:03 | 68 | 18:48:00 | 70.6 | 0 | 5.0 | 27 | 1 | 68 | 68 | 70 | 70 |
| 04/30/2026 | 20:00:00 | 120 | 63 | 19:00:00 | 61 | 19:41:02 | 61 | 82 | 19:24:00 | 71 | 19:00:00 | 76.14 | 0 | 4.3 | 4 | 0 | 67 | 66 | 69 | 69 |
| 04/30/2026 | 21:00:00 | 120 | 61 | 20:06:05 | 60 | 20:51:03 | 60 | 76 | 20:51:01 | 74 | 20:32:05 | 75.36 | 0 | 6.6 | 21 | 0 | 66 | 65 | 69 | 68 |
| 04/30/2026 | 22:00:00 | 120 | 60 | 21:00:00 | 59 | 21:35:04 | 59 | 82 | 21:35:03 | 75 | 21:00:00 | 81.1 | 0 | 5.2 | 7 | 0 | 65 | 64 | 68 | 67 |
| 04/30/2026 | 23:00:00 | 120 | 59 | 22:13:04 | 59 | 22:57:00 | 59 | 82 | 22:21:04 | 79 | 22:41:02 | 80.3 | 0 | 5.0 | 14 | 0 | 64 | 64 | 67 | 67 |
| 05/01/2026 | 0:00:00 | 121 | 59 | 23:00:04 | 58 | 23:58:01 | 58 | 83 | 23:57:05 | 80 | 23:01:05 | 82.8 | 0 | 5.0 | 18 | 0 | 63 | 63 | 66 | 66 |
| 05/01/2026 | 1:00:00 | 121 | 59 | 0:58:01 | 58 | 0:14:01 | 58 | 83 | 0:00:00 | 77 | 0:57:01 | 78.14 | 0 | 6.1 | 20 | 0 | 63 | 63 | 66 | 66 |
| 05/01/2026 | 2:00:00 | 121 | 59 | 1:10:05 | 58 | 1:46:03 | 58 | 78 | 1:45:02 | 76 | 1:26:04 | 77.6 | 0 | 5.9 | 22 | 0 | 62 | 62 | 65 | 65 |
| 05/01/2026 | 3:00:00 | 121 | 58 | 2:16:00 | 58 | 2:59:04 | 58 | 78 | 2:04:00 | 76 | 2:35:04 | 77.89 | 0 | 4.4 | 29 | 0 | 62 | 62 | 65 | 65 |
| 05/01/2026 | 4:00:00 | 121 | 58 | 3:01:03 | 56 | 3:54:02 | 57 | 86 | 3:36:00 | 77 | 3:00:05 | 84.8 | 0 | 3.4 | 29 | 0 | 62 | 62 | 65 | 65 |
| 05/01/2026 | 5:00:00 | 121 | 57 | 4:09:00 | 56 | 4:59:02 | 56 | 87 | 4:58:04 | 82 | 4:32:02 | 86.8 | 0 | 5.3 | 17 | 0 | 61 | 61 | 64 | 64 |
| 05/01/2026 | 6:00:00 | 121 | 57 | 5:10:04 | 56 | 5:01:03 | 56 | 87 | 5:00:04 | 83 | 5:11:03 | 86.5 | 0 | 3.8 | 18 | 1 | 61 | 61 | 64 | 64 |
| 05/01/2026 | 7:00:00 | 121 | 57 | 6:59:00 | 56 | 6:01:01 | 57 | 87 | 6:16:03 | 81 | 6:55:02 | 80.9 | 0 | 4.3 | 14 | 5 | 61 | 61 | 64 | 64 |
| 05/01/2026 | 8:00:00 | 121 | 59 | 7:57:01 | 57 | 7:00:04 | 58 | 81 | 7:09:05 | 75 | 7:56:00 | 74.61 | 0 | 6.1 | 23 | 8 | 61 | 62 | 63 | 63 |
| 05/01/2026 | 9:00:00 | 121 | 59 | 8:57:00 | 58 | 8:00:00 | 59 | 78 | 8:14:02 | 71 | 8:54:05 | 73.5 | 0 | 6.0 | 31 | 11 | 62 | 62 | 64 | 64 |
| 05/01/2026 | 10:00:00 | 121 | 61 | 9:58:04 | 59 | 9:02:01 | 61 | 74 | 9:06:04 | 67 | 9:51:05 | 67.23 | 0 | 8.7 | 37 | 20 | 63 | 64 | 64 | 64 |
| 05/01/2026 | 11:00:00 | 121 | 61 | 10:59:01 | 61 | 10:11:04 | 61 | 70 | 10:31:01 | 63 | 10:49:01 | 65.46 | 0 | 7.8 | 42 | 18 | 64 | 65 | 64 | 65 |
| 05/01/2026 | 12:00:00 | 121 | 62 | 11:58:01 | 61 | 11:08:04 | 62 | 68 | 11:37:05 | 63 | 11:31:00 | 64.55 | 0 | 6.6 | 35 | 14 | 65 | 65 | 65 | 65 |
| 05/01/2026 | 13:00:00 | 121 | 62 | 12:57:04 | 62 | 12:19:04 | 62 | 68 | 12:26:00 | 63 | 12:16:04 | 66.16 | 0 | 7.2 | 45 | 18 | 65 | 66 | 65 | 65 |
| 05/01/2026 | 14:00:00 | 121 | 64 | 13:59:00 | 62 | 13:00:05 | 64 | 68 | 13:02:04 | 60 | 13:44:00 | 62.19 | 0 | 7.5 | 40 | 29 | 66 | 67 | 66 | 66 |
| 05/01/2026 | 15:00:00 | 121 | 65 | 14:41:04 | 64 | 14:30:02 | 64 | 66 | 14:16:04 | 59 | 14:30:02 | 61.49 | 0 | 8.8 | 43 | 28 | 68 | 69 | 66 | 67 |
| 05/01/2026 | 16:00:00 | 121 | 65 | 15:46:03 | 64 | 15:25:00 | 65 | 66 | 15:26:03 | 60 | 15:05:04 | 62.7 | 0 | 0.9 | 53 | 21 | 69 | 69 | 67 | 67 |
| 05/01/2026 | 17:00:00 | 121 | 65 | 16:13:00 | 64 | 16:59:04 | 64 | 64 | 16:10:01 | 54 | 16:46:05 | 55.33 | 0 | 9.2 | 41 | 12 | 68 | 68 | 68 | 68 |
| 05/01/2026 | 18:00:00 | 121 | 64 | 17:00:03 | 63 | 17:57:05 | 63 | 64 | 17:57:04 | 54 | 17:00:03 | 62.89 | 0 | 6.9 | 40 | 4 | 67 | 66 | 67 | 67 |
| 05/01/2026 | 19:00:00 | 121 | 63 | 18:00:05 | 61 | 18:59:02 | 61 | 70 | 19:00:00 | 62 | 18:00:03 | 70.13 | 0 | 5.6 | 7 | 1 | 66 | 65 | 67 | 67 |
| 05/01/2026 | 20:00:00 | 121 | 61 | 19:00:00 | 60 | 19:59:04 | 60 | 74 | 19:13:00 | 68 | 19:54:03 | 69.21 | 0 | 5.1 | 0 | 0 | 64 | 64 | 66 | 66 |
| 05/01/2026 | 21:00:00 | 121 | 60 | 20:25:05 | 59 | 20:52:05 | 59 | 70 | 20:02:05 | 64 | 20:57:00 | 65.31 | 0 | 6.3 | 7 | 0 | 63 | 63 | 66 | 65 |
| 05/01/2026 | 22:00:00 | 121 | 60 | 21:36:01 | 59 | 21:09:03 | 59 | 67 | 21:04:05 | 62 | 21:36:01 | 63.56 | 0 | 6.2 | 15 | 0 | 62 | 62 | 65 | 65 |
| 05/01/2026 | 23:00:00 | 121 | 59 | 22:03:02 | 58 | 22:39:02 | 59 | 65 | 22:38:05 | 60 | 22:47:02 | 62.65 | 0 | 6.0 | 20 | 0 | 62 | 61 | 64 | 64 |
| 05/02/2026 | 0:00:00 | 122 | 59 | 23:47:04 | 58 | 23:15:02 | 59 | 64 | 23:11:05 | 57 | 23:48:05 | 58.9 | 0 | 4.9 | 27 | 0 | 61 | 61 | 64 | 64 |
| 05/02/2026 | 1:00:00 | 122 | 59 | 0:00:01 | 56 | 0:51:05 | 56 | 73 | 0:50:04 | 59 | 0:00:00 | 70.67 | 0 | 3.4 | 15 | 0 | 61 | 60 | 64 | 63 |
| 05/02/2026 | 2:00:00 | 122 | 57 | 1:06:04 | 55 | 1:59:04 | 55 | 78 | 1:32:01 | 69 | 1:06:01 | 77.49 | 0 | 2.8 | 8 | 0 | 60 | 60 | 63 | 63 |
| 05/02/2026 | 3:00:00 | 122 | 55 | 2:00:01 | 52 | 2:56:04 | 53 | 82 | 2:26:04 | 77 | 2:08:03 | 78.16 | 0 | 3.6 | 1 | 0 | 59 | 59 | 63 | 62 |
| 05/02/2026 | 4:00:00 | 122 | 53 | 3:09:05 | 52 | 3:59:03 | 52 | 78 | 3:00:00 | 74 | 3:37:00 | 76.75 | 0 | 5.0 | 16 | 0 | 58 | 58 | 62 | 62 |
| 05/02/2026 | 5:00:00 | 122 | 53 | 4:18:03 | 51 | 4:59:05 | 51 | 84 | 5:00:00 | 75 | 4:19:01 | 84 | 0 | 3.1 | 2 | 0 | 57 | 57 | 61 | 61 |
| 05/02/2026 | 6:00:00 | 122 | 51 | 5:00:00 | 50 | 5:26:01 | 51 | 89 | 5:23:01 | 84 | 5:00:01 | 85.7 | 0 | 1.2 | 319 | 3 | 57 | 57 | 61 | 61 |
| 05/02/2026 | 7:00:00 | 122 | 56 | 6:56:04 | 51 | 6:00:00 | 56 | 86 | 6:01:00 | 74 | 6:53:03 | 75.02 | 0 | 4.5 | 339 | 18 | 57 | 59 | 60 | 60 |
| 05/02/2026 | 8:00:00 | 122 | 61 | 7:56:03 | 56 | 7:00:00 | 60 | 76 | 7:01:00 | 60 | 7:59:05 | 59.79 | 0 | 6.1 | 0 | 36 | 61 | 63 | 61 | 61 |
| 05/02/2026 | 9:00:00 | 122 | 64 | 8:59:04 | 60 | 8:01:03 | 64 | 63 | 8:03:00 | 52 | 8:55:04 | 55.29 | 0 | 4.7 | 9 | 53 | 66 | 69 | 62 | 63 |
| 05/02/2026 | 10:00:00 | 122 | 67 | 9:51:01 | 63 | 9:00:05 | 66 | 55 | 9:00:00 | 42 | 9:48:02 | 46.92 | 0 | 4.0 | 2 | 66 | 72 | 75 | 65 | 66 |
| 05/02/2026 | 11:00:00 | 122 | 70 | 10:59:02 | 66 | 10:00:00 | 69 | 48 | 10:14:04 | 37 | 10:54:02 | 38.13 | 0 | 6.0 | 10 | 76 | 77 | 80 | 68 | 70 |
| 05/02/2026 | 12:00:00 | 122 | 72 | 11:59:00 | 68 | 11:14:00 | 71 | 41 | 11:02:02 | 32 | 11:55:04 | 34.08 | 0 | 5.8 | 346 | 81 | 82 | 84 | 71 | 73 |
| 05/02/2026 | 13:00:00 | 122 | 72 | 12:57:01 | 69 | 12:08:04 | 72 | 39 | 12:13:03 | 33 | 12:00:01 | 36.77 | 0 | 7.3 | 321 | 81 | 85 | 86 | 74 | 76 |
| 05/02/2026 | 14:00:00 | 122 | 74 | 13:54:01 | 71 | 13:18:02 | 74 | 39 | 13:47:02 | 32 | 13:55:03 | 34.13 | 0 | 7.9 | 331 | 79 | 87 | 87 | 77 | 78 |
| 05/02/2026 | 15:00:00 | 122 | 74 | 14:00:03 | 72 | 14:24:02 | 73 | 37 | 14:21:01 | 31 | 14:49:02 | 35.13 | 0 | 9.1 | 334 | 61 | 87 | 86 | 78 | 79 |
| 05/02/2026 | 16:00:00 | 122 | 73 | 15:40:00 | 72 | 15:59:00 | 72 | 38 | 15:54:03 | 33 | 15:05:01 | 36.75 | 0 | 8.1 | 325 | 46 | 83 | 81 | 78 | 78 |
| 05/02/2026 | 17:00:00 | 122 | 73 | 16:49:05 | 71 | 16:17:05 | 72 | 40 | 16:57:00 | 35 | 16:46:01 | 38.44 | 0 | 6.8 | 332 | 22 | 79 | 78 | 78 | 77 |
| 05/02/2026 | 18:00:00 | 122 | 72 | 17:04:02 | 70 | 17:59:03 | 70 | 44 | 17:57:00 | 37 | 17:00:03 | 43.4 | 0 | 6.2 | 350 | 12 | 76 | 75 | 76 | 76 |
| 05/02/2026 | 19:00:00 | 122 | 70 | 18:00:00 | 65 | 18:59:05 | 65 | 63 | 19:00:00 | 43 | 18:00:01 | 63.12 | 0 | 1.9 | 357 | 2 | 74 | 72 | 75 | 74 |
| 05/02/2026 | 20:00:00 | 122 | 65 | 19:00:00 | 61 | 19:43:02 | 61 | 75 | 19:41:04 | 61 | 19:01:03 | 72.78 | 0 | 1.5 | 252 | 0 | 71 | 70 | 73 | 73 |
| 05/02/2026 | 21:00:00 | 122 | 61 | 20:00:00 | 58 | 20:55:00 | 58 | 83 | 20:49:05 | 73 | 20:00:00 | 82.2 | 0 | 0.6 | 227 | 0 | 69 | 68 | 72 | 71 |
| 05/02/2026 | 22:00:00 | 122 | 58 | 21:00:02 | 56 | 21:59:03 | 56 | 88 | 21:46:02 | 82 | 21:00:00 | 88.1 | 0 | 0.4 | 259 | 0 | 67 | 67 | 71 | 70 |
| 05/02/2026 | 23:00:00 | 122 | 56 | 22:01:00 | 55 | 22:59:05 | 55 | 91 | 22:46:04 | 88 | 22:00:00 | 90.6 | 0 | 0.7 | 280 | 0 | 66 | 65 | 69 | 69 |
| 05/03/2026 | 0:00:00 | 123 | 55 | 23:00:00 | 53 | 23:37:04 | 54 | 93 | 23:43:03 | 88 | 0:00:00 | 87.7 | 0 | 1.6 | 317 | 0 | 64 | 64 | 68 | 68 |
| 05/03/2026 | 1:00:00 | 123 | 54 | 0:00:00 | 52 | 0:59:04 | 52 | 92 | 1:00:00 | 87 | 0:02:04 | 92.2 | 0 | 1.5 | 335 | 0 | 63 | 63 | 67 | 67 |
| 05/03/2026 | 2:00:00 | 123 | 52 | 1:00:01 | 51 | 1:49:05 | 52 | 94 | 1:23:02 | 92 | 1:00:01 | 93.1 | 0 | 0.9 | 15 | 0 | 62 | 62 | 66 | 66 |
| 05/03/2026 | 3:00:00 | 123 | 52 | 2:00:02 | 50 | 2:56:01 | 50 | 95 | 2:59:01 | 93 | 2:02:00 | 95.4 | 0 | 1.3 | 5 | 0 | 61 | 61 | 65 | 65 |
| 05/03/2026 | 4:00:00 | 123 | 54 | 4:00:00 | 50 | 3:06:03 | 54 | 96 | 3:09:00 | 78 | 4:00:00 | 77.94 | 0 | 3.6 | 50 | 0 | 60 | 60 | 65 | 64 |
| 05/03/2026 | 5:00:00 | 123 | 54 | 4:02:05 | 52 | 4:40:01 | 53 | 81 | 4:40:05 | 77 | 4:03:01 | 78.94 | 0 | 6.6 | 97 | 0 | 59 | 59 | 64 | 63 |
| 05/03/2026 | 6:00:00 | 123 | 54 | 5:59:05 | 53 | 5:17:00 | 54 | 81 | 5:44:00 | 77 | 5:59:05 | 77.3 | 0 | 4.7 | 96 | 3 | 59 | 58 | 63 | 63 |
| 05/03/2026 | 7:00:00 | 123 | 57 | 6:52:02 | 54 | 6:00:01 | 57 | 79 | 6:12:02 | 69 | 6:59:04 | 69.54 | 0 | 4.3 | 112 | 18 | 59 | 60 | 63 | 63 |
| 05/03/2026 | 8:00:00 | 123 | 61 | 7:55:04 | 57 | 7:00:02 | 61 | 70 | 7:02:01 | 59 | 7:57:03 | 60.26 | 0 | 6.5 | 124 | 36 | 62 | 64 | 63 | 63 |
| 05/03/2026 | 9:00:00 | 123 | 66 | 8:56:02 | 61 | 8:01:03 | 66 | 62 | 8:19:03 | 57 | 8:57:02 | 59.76 | 0 | 6.3 | 142 | 53 | 67 | 70 | 64 | 65 |
| 05/03/2026 | 10:00:00 | 123 | 70 | 9:59:03 | 66 | 9:00:00 | 70 | 60 | 9:00:03 | 52 | 9:46:03 | 53.61 | 0 | 4.7 | 155 | 67 | 73 | 76 | 67 | 68 |
| 05/03/2026 | 11:00:00 | 123 | 72 | 10:59:00 | 70 | 10:04:05 | 72 | 58 | 10:22:03 | 48 | 10:32:03 | 51.1 | 0 | 5.2 | 205 | 76 | 78 | 81 | 70 | 71 |
| 05/03/2026 | 12:00:00 | 123 | 75 | 11:49:03 | 72 | 11:00:05 | 75 | 53 | 11:02:03 | 37 | 11:50:05 | 40.43 | 0 | 4.9 | 230 | 81 | 83 | 85 | 73 | 74 |
| 05/03/2026 | 13:00:00 | 123 | 77 | 12:52:04 | 75 | 12:16:00 | 76 | 43 | 12:16:03 | 37 | 12:53:00 | 38.98 | 0 | 6.0 | 240 | 81 | 87 | 88 | 76 | 77 |
| 05/03/2026 | 14:00:00 | 123 | 78 | 13:59:05 | 75 | 13:16:01 | 78 | 41 | 13:38:04 | 37 | 13:26:02 | 39.71 | 0 | 5.6 | 246 | 76 | 89 | 89 | 78 | 79 |
| 05/03/2026 | 15:00:00 | 123 | 79 | 14:34:04 | 77 | 14:02:04 | 78 | 42 | 14:09:01 | 37 | 14:55:02 | 39.5 | 0 | 6.0 | 213 | 65 | 89 | 89 | 80 | 81 |
| 05/03/2026 | 16:00:00 | 123 | 80 | 15:52:00 | 78 | 15:00:00 | 79 | 41 | 15:00:04 | 35 | 15:53:03 | 35.88 | 0 | 6.5 | 239 | 51 | 87 | 85 | 81 | 81 |
| 05/03/2026 | 17:00:00 | 123 | 79 | 16:38:05 | 78 | 16:33:05 | 78 | 40 | 16:56:00 | 35 | 16:01:05 | 38.65 | 0 | 5.4 | 221 | 35 | 83 | 81 | 80 | 80 |
| 05/03/2026 | 18:00:00 | 123 | 78 | 17:02:02 | 76 | 17:55:04 | 77 | 45 | 17:59:02 | 37 | 17:01:01 | 44.28 | 0 | 5.1 | 215 | 17 | 80 | 79 | 79 | 78 |
| 05/03/2026 | 19:00:00 | 123 | 77 | 18:00:00 | 70 | 18:59:05 | 70 | 61 | 19:00:00 | 43 | 18:04:05 | 60.59 | 0 | 3.5 | 184 | 2 | 77 | 76 | 78 | 77 |
| 05/03/2026 | 20:00:00 | 123 | 70 | 19:00:00 | 65 | 19:54:03 | 65 | 76 | 19:52:05 | 61 | 19:00:00 | 72.34 | 0 | 2.3 | 185 | 0 | 75 | 74 | 76 | 76 |
| 05/03/2026 | 21:00:00 | 123 | 65 | 20:00:02 | 64 | 20:56:03 | 64 | 77 | 20:43:04 | 71 | 20:24:02 | 75.74 | 0 | 2.6 | 179 | 0 | 73 | 72 | 75 | 74 |
| 05/03/2026 | 22:00:00 | 123 | 64 | 21:11:01 | 63 | 21:36:00 | 64 | 79 | 21:38:05 | 74 | 21:11:00 | 76.86 | 0 | 2.7 | 186 | 0 | 71 | 70 | 74 | 73 |
| 05/03/2026 | 23:00:00 | 123 | 64 | 22:01:01 | 63 | 22:55:04 | 63 | 80 | 22:57:03 | 77 | 22:00:04 | 79.51 | 0 | 3.6 | 192 | 0 | 70 | 69 | 72 | 72 |
| 05/04/2026 | 0:00:00 | 124 | 64 | 23:56:00 | 62 | 23:17:03 | 64 | 81 | 23:18:02 | 77 | 23:57:01 | 77.45 | 0 | 4.5 | 188 | 0 | 69 | 68 | 71 | 71 |
| 05/04/2026 | 1:00:00 | 124 | 64 | 0:32:00 | 63 | 0:11:00 | 64 | 80 | 0:15:01 | 76 | 0:58:05 | 76.65 | 0 | 5.6 | 207 | 0 | 68 | 67 | 71 | 70 |
| 05/04/2026 | 2:00:00 | 124 | 64 | 1:00:01 | 63 | 1:56:01 | 63 | 78 | 1:33:00 | 76 | 1:18:03 | 77.79 | 0 | 6.5 | 209 | 0 | 67 | 67 | 70 | 69 |
| 05/04/2026 | 3:00:00 | 124 | 63 | 2:00:02 | 61 | 2:54:04 | 62 | 79 | 2:19:03 | 78 | 2:00:00 | 78.59 | 0 | 6.4 | 211 | 0 | 66 | 66 | 69 | 69 |
| 05/04/2026 | 4:00:00 | 124 | 62 | 3:00:01 | 60 | 4:00:00 | 60 | 82 | 3:59:05 | 78 | 3:00:04 | 82.2 | 0 | 6.0 | 215 | 0 | 65 | 65 | 69 | 68 |
| 05/04/2026 | 5:00:00 | 124 | 60 | 4:03:02 | 59 | 4:43:00 | 59 | 84 | 4:46:00 | 82 | 4:04:05 | 83.8 | 0 | 5.5 | 215 | 0 | 65 | 64 | 68 | 68 |
| 05/04/2026 | 6:00:00 | 124 | 61 | 5:59:02 | 59 | 5:06:05 | 61 | 85 | 5:07:02 | 79 | 6:00:00 | 79.35 | 0 | 6.9 | 219 | 2 | 64 | 64 | 67 | 67 |
| 05/04/2026 | 7:00:00 | 124 | 63 | 6:55:01 | 61 | 6:01:01 | 63 | 80 | 6:02:04 | 76 | 6:31:05 | 76.58 | 0 | 8.9 | 228 | 14 | 65 | 65 | 67 | 67 |
| 05/04/2026 | 8:00:00 | 124 | 67 | 7:55:03 | 63 | 7:00:01 | 66 | 77 | 7:01:04 | 70 | 7:55:05 | 71.39 | 0 | 9.2 | 227 | 28 | 66 | 68 | 67 | 67 |
| 05/04/2026 | 9:00:00 | 124 | 70 | 8:51:01 | 66 | 8:00:01 | 70 | 72 | 8:00:05 | 62 | 8:55:01 | 62.95 | 0 | 10.1 | 233 | 46 | 70 | 72 | 68 | 69 |
| 05/04/2026 | 10:00:00 | 124 | 74 | 9:58:00 | 70 | 9:00:01 | 74 | 64 | 9:01:04 | 54 | 10:00:00 | 54.18 | 0 | 9.3 | 234 | 65 | 75 | 77 | 70 | 71 |
| 05/04/2026 | 11:00:00 | 124 | 78 | 10:59:05 | 74 | 10:00:03 | 78 | 56 | 10:03:03 | 45 | 10:59:05 | 46.01 | 0 | 10.8 | 221 | 76 | 79 | 82 | 72 | 73 |
| 05/04/2026 | 12:00:00 | 124 | 79 | 11:59:05 | 77 | 11:09:00 | 79 | 50 | 11:09:05 | 39 | 11:47:02 | 44.26 | 0 | 13.3 | 216 | 79 | 83 | 84 | 75 | 76 |
| 05/04/2026 | 13:00:00 | 124 | 80 | 12:16:02 | 78 | 12:07:03 | 80 | 46 | 12:03:02 | 40 | 12:27:03 | 42.5 | 0 | 12.8 | 219 | 80 | 86 | 87 | 77 | 78 |
| 05/04/2026 | 14:00:00 | 124 | 81 | 13:44:02 | 79 | 13:53:05 | 80 | 45 | 13:02:00 | 39 | 13:12:05 | 43.09 | 0 | 13.5 | 206 | 76 | 87 | 88 | 79 | 80 |
| 05/04/2026 | 15:00:00 | 124 | 80 | 14:07:01 | 78 | 14:21:04 | 79 | 45 | 14:55:01 | 40 | 14:07:03 | 43.93 | 0 | 15.1 | 201 | 55 | 87 | 86 | 80 | 81 |
| 05/04/2026 | 16:00:00 | 124 | 80 | 15:34:02 | 78 | 15:42:01 | 79 | 45 | 15:28:04 | 42 | 15:31:04 | 45 | 0 | 14.3 | 203 | 50 | 85 | 84 | 81 | 80 |
| 05/04/2026 | 17:00:00 | 124 | 79 | 16:00:02 | 78 | 16:39:00 | 78 | 46 | 16:56:02 | 43 | 16:00:04 | 45.73 | 0 | 14.3 | 193 | 34 | 82 | 81 | 80 | 80 |
| 05/04/2026 | 18:00:00 | 124 | 78 | 17:03:03 | 75 | 17:56:02 | 75 | 51 | 17:52:02 | 45 | 17:00:03 | 50.06 | 0 | 12.0 | 195 | 15 | 80 | 78 | 79 | 78 |
| 05/04/2026 | 19:00:00 | 124 | 75 | 18:02:03 | 72 | 19:00:00 | 72 | 54 | 19:00:00 | 49 | 18:01:04 | 53.82 | 0 | 10.0 | 192 | 2 | 77 | 76 | 78 | 77 |
| 05/04/2026 | 20:00:00 | 124 | 72 | 19:00:00 | 69 | 19:59:05 | 69 | 60 | 19:59:03 | 54 | 19:00:01 | 59.55 | 0 | 5.8 | 176 | 0 | 75 | 74 | 77 | 76 |
| 05/04/2026 | 21:00:00 | 124 | 69 | 20:13:03 | 68 | 20:58:05 | 68 | 63 | 20:59:05 | 59 | 20:06:01 | 62.99 | 0 | 5.9 | 169 | 0 | 73 | 73 | 75 | 75 |
| 05/04/2026 | 22:00:00 | 124 | 68 | 21:02:03 | 67 | 22:00:00 | 67 | 67 | 21:59:02 | 63 | 21:02:02 | 66.9 | 0 | 6.2 | 172 | 0 | 72 | 71 | 74 | 74 |
| 05/04/2026 | 23:00:00 | 124 | 67 | 22:00:00 | 66 | 22:30:04 | 67 | 69 | 23:00:00 | 67 | 22:00:02 | 69.26 | 0 | 6.3 | 176 | 0 | 71 | 70 | 73 | 73 |
| 05/05/2026 | 0:00:00 | 125 | 67 | 23:50:01 | 66 | 23:10:00 | 67 | 71 | 23:59:00 | 69 | 23:00:00 | 71.15 | 0 | 7.2 | 183 | 0 | 70 | 70 | 73 | 72 |
| 05/05/2026 | 1:00:00 | 125 | 68 | 0:48:02 | 67 | 0:25:05 | 67 | 72 | 0:26:02 | 70 | 0:48:00 | 70.89 | 0 | 10.0 | 191 | 0 | 70 | 69 | 72 | 72 |
| 05/05/2026 | 2:00:00 | 125 | 67 | 1:02:02 | 66 | 1:59:01 | 66 | 75 | 2:00:00 | 71 | 1:02:03 | 75.1 | 0 | 10.3 | 194 | 0 | 69 | 69 | 71 | 71 |
| 05/05/2026 | 3:00:00 | 125 | 66 | 2:00:01 | 65 | 2:57:01 | 65 | 78 | 2:58:04 | 75 | 2:00:00 | 78.15 | 0 | 8.7 | 188 | 0 | 69 | 68 | 71 | 70 |
| 05/05/2026 | 4:00:00 | 125 | 65 | 3:03:03 | 64 | 3:53:01 | 65 | 80 | 3:53:02 | 78 | 3:04:03 | 79.23 | 0 | 9.1 | 187 | 0 | 68 | 68 | 70 | 70 |
| 05/05/2026 | 5:00:00 | 125 | 66 | 4:59:04 | 64 | 4:10:00 | 66 | 80 | 4:11:02 | 78 | 4:48:04 | 78.23 | 0 | 10.6 | 189 | 0 | 68 | 68 | 70 | 70 |
| 05/05/2026 | 6:00:00 | 125 | 66 | 5:56:00 | 65 | 5:59:05 | 65 | 80 | 6:00:00 | 77 | 5:56:04 | 79.71 | 0 | 11.5 | 182 | 2 | 68 | 68 | 70 | 70 |
| 05/05/2026 | 7:00:00 | 125 | 67 | 6:59:00 | 64 | 6:11:02 | 67 | 82 | 6:12:01 | 78 | 6:57:03 | 78.6 | 0 | 7.7 | 160 | 5 | 68 | 69 | 69 | 70 |
| 05/05/2026 | 8:00:00 | 125 | 68 | 7:59:04 | 67 | 7:01:01 | 68 | 81 | 7:59:05 | 78 | 7:01:01 | 81.1 | 0 | 10.7 | 191 | 5 | 69 | 69 | 70 | 70 |
| 05/05/2026 | 9:00:00 | 125 | 70 | 8:58:02 | 68 | 8:00:00 | 70 | 81 | 8:14:05 | 79 | 8:58:04 | 79.05 | 0 | 11.5 | 198 | 11 | 70 | 70 | 70 | 70 |
| 05/05/2026 | 10:00:00 | 125 | 71 | 9:44:03 | 70 | 9:26:03 | 70 | 81 | 9:59:00 | 79 | 9:10:05 | 80.6 | 0 | 13.3 | 192 | 13 | 71 | 71 | 70 | 70 |
| 05/05/2026 | 11:00:00 | 125 | 72 | 11:00:00 | 70 | 10:01:00 | 72 | 81 | 10:16:05 | 78 | 10:52:01 | 79.17 | 0 | 14.3 | 187 | 20 | 72 | 72 | 71 | 71 |
| 05/05/2026 | 12:00:00 | 125 | 76 | 11:53:04 | 72 | 11:09:00 | 75 | 79 | 11:00:01 | 72 | 11:54:04 | 74.38 | 0 | 13.9 | 180 | 37 | 74 | 75 | 71 | 72 |
| 05/05/2026 | 13:00:00 | 125 | 77 | 12:44:03 | 75 | 12:55:03 | 75 | 76 | 12:59:04 | 73 | 12:44:05 | 75.99 | 0 | 13.9 | 187 | 29 | 76 | 77 | 72 | 73 |
| 05/05/2026 | 14:00:00 | 125 | 76 | 13:07:02 | 74 | 14:00:00 | 74 | 82 | 13:59:04 | 75 | 13:08:05 | 81.8 | 0 | 14.3 | 186 | 17 | 76 | 76 | 73 | 74 |
| 05/05/2026 | 15:00:00 | 125 | 74 | 14:58:01 | 72 | 14:31:05 | 74 | 89 | 14:33:02 | 82 | 14:00:00 | 84.8 | 0 | 13.4 | 178 | 18 | 76 | 76 | 74 | 74 |
| 05/05/2026 | 16:00:00 | 125 | 76 | 15:52:04 | 74 | 15:01:03 | 76 | 85 | 15:00:02 | 79 | 15:58:05 | 79.45 | 0 | 11.1 | 171 | 18 | 76 | 76 | 74 | 74 |
| 05/05/2026 | 17:00:00 | 125 | 77 | 16:59:04 | 76 | 16:00:04 | 77 | 80 | 16:01:02 | 77 | 16:21:00 | 78.19 | 0 | 11.7 | 173 | 12 | 76 | 76 | 74 | 74 |
| 05/05/2026 | 18:00:00 | 125 | 77 | 17:00:00 | 76 | 17:45:04 | 77 | 79 | 17:56:00 | 78 | 17:15:01 | 78.94 | 0 | 12.9 | 175 | 8 | 76 | 76 | 74 | 74 |
| 05/05/2026 | 19:00:00 | 125 | 77 | 18:00:01 | 76 | 18:55:03 | 76 | 81 | 18:55:05 | 79 | 18:01:01 | 81.1 | 0 | 11.9 | 180 | 1 | 75 | 75 | 74 | 74 |
| 05/05/2026 | 20:00:00 | 125 | 76 | 19:03:00 | 75 | 19:53:00 | 75 | 83 | 19:57:01 | 81 | 19:00:00 | 83 | 0 | 11.0 | 181 | 0 | 74 | 74 | 74 | 74 |
| 05/05/2026 | 21:00:00 | 125 | 75 | 20:00:05 | 75 | 20:23:04 | 75 | 85 | 20:54:03 | 83 | 20:00:01 | 85 | 0 | 9.2 | 186 | 0 | 74 | 74 | 74 | 74 |
| 05/05/2026 | 22:00:00 | 125 | 75 | 21:01:03 | 74 | 21:47:01 | 75 | 87 | 21:49:01 | 85 | 21:02:00 | 86.6 | 0 | 9.4 | 184 | 0 | 73 | 73 | 73 | 73 |
| 05/05/2026 | 23:00:00 | 125 | 75 | 22:07:02 | 74 | 22:55:03 | 75 | 88 | 22:56:00 | 86 | 22:08:05 | 87.4 | 0 | 10.9 | 191 | 0 | 73 | 73 | 73 | 73 |
| 05/06/2026 | 0:00:00 | 126 | 75 | 23:01:02 | 74 | 23:57:02 | 74 | 89 | 23:58:02 | 87 | 23:03:00 | 88.8 | 0 | 12.1 | 199 | 0 | 73 | 73 | 73 | 73 |
| 05/06/2026 | 1:00:00 | 126 | 75 | 0:59:05 | 74 | 0:21:04 | 75 | 90 | 0:44:05 | 89 | 0:00:01 | 89.6 | 0 | 1.1 | 199 | 0 | 73 | 73 | 73 | 73 |
| 05/06/2026 | 2:00:00 | 126 | 75 | 1:24:00 | 75 | 1:55:05 | 75 | 90 | 1:57:02 | 89 | 1:14:05 | 89.2 | 0 | 12.7 | 209 | 0 | 73 | 73 | 73 | 73 |
| 05/06/2026 | 3:00:00 | 126 | 75 | 2:56:04 | 74 | 2:36:01 | 75 | 90 | 2:37:00 | 89 | 2:57:05 | 89.2 | 0 | 12.2 | 213 | 0 | 73 | 73 | 73 | 73 |
| 05/06/2026 | 4:00:00 | 126 | 75 | 3:00:02 | 74 | 3:56:00 | 74 | 90 | 3:59:02 | 89 | 3:00:01 | 90.2 | 0 | 10.4 | 219 | 0 | 73 | 73 | 73 | 73 |
| 05/06/2026 | 5:00:00 | 126 | 74 | 4:01:02 | 73 | 4:59:04 | 73 | 92 | 4:55:01 | 90 | 4:03:03 | 91.6 | 0 | 9.8 | 216 | 0 | 73 | 73 | 73 | 73 |
| 05/06/2026 | 6:00:00 | 126 | 74 | 5:00:01 | 68 | 5:59:05 | 68 | 95 | 5:59:03 | 90 | 5:41:05 | 94.5 | 0.05 | 7.9 | 241 | 0 | 72 | 72 | 72 | 72 |
| 05/06/2026 | 7:00:00 | 126 | 68 | 6:00:00 | 61 | 6:59:02 | 61 | 97 | 6:42:02 | 94 | 6:02:03 | 96.8 | 0.02 | 7.1 | 19 | 2 | 71 | 71 | 72 | 72 |
| 05/06/2026 | 8:00:00 | 126 | 61 | 7:02:02 | 59 | 7:59:01 | 59 | 98 | 7:48:05 | 96 | 7:04:02 | 97.3 | 0.01 | 8.1 | 13 | 4 | 70 | 69 | 72 | 71 |
| 05/06/2026 | 9:00:00 | 126 | 60 | 8:06:03 | 57 | 8:55:05 | 57 | 98 | 8:06:03 | 96 | 9:00:00 | 95.9 | 0 | 9.9 | 1 | 9 | 69 | 68 | 71 | 71 |
| 05/06/2026 | 10:00:00 | 126 | 58 | 9:00:03 | 56 | 9:49:02 | 57 | 97 | 9:36:04 | 96 | 9:58:05 | 96.2 | 0 | 10.5 | 2 | 12 | 68 | 67 | 70 | 70 |
| 05/06/2026 | 11:00:00 | 126 | 58 | 10:44:04 | 56 | 10:16:05 | 57 | 97 | 10:30:05 | 95 | 10:46:01 | 95.9 | 0 | 10.3 | 360 | 17 | 67 | 67 | 70 | 69 |
| 05/06/2026 | 12:00:00 | 126 | 58 | 11:54:04 | 57 | 11:15:05 | 58 | 96 | 11:03:00 | 94 | 11:56:01 | 94.7 | 0 | 9.3 | 9 | 17 | 68 | 67 | 69 | 69 |
| 05/06/2026 | 13:00:00 | 126 | 58 | 12:54:02 | 57 | 12:06:00 | 57 | 96 | 12:44:04 | 93 | 12:58:01 | 93.9 | 0 | 9.4 | 5 | 20 | 68 | 68 | 69 | 69 |
| 05/06/2026 | 14:00:00 | 126 | 58 | 13:20:05 | 57 | 13:54:05 | 57 | 95 | 13:21:00 | 93 | 13:37:01 | 94.5 | 0 | 10.9 | 358 | 13 | 68 | 67 | 69 | 69 |
| 05/06/2026 | 15:00:00 | 126 | 57 | 14:29:04 | 56 | 14:58:02 | 56 | 95 | 14:02:04 | 92 | 14:26:02 | 93 | 0 | 12.5 | 15 | 14 | 67 | 66 | 69 | 68 |
| 05/06/2026 | 16:00:00 | 126 | 57 | 15:51:01 | 56 | 15:34:00 | 56 | 94 | 15:06:02 | 92 | 15:22:01 | 92.4 | 0 | 7.8 | 36 | 6 | 66 | 66 | 68 | 68 |
| Average | 66.4 | 64.62 | 65.47 | 76.72 | 71.39 | 74.06 | 0 | 7.46 | 16.24 | 70.1 | 70.1 | 70.21 | 70.21 | |||||||
| Total | 0.1 |